sensor_id;sensor_type;location;lat;lon;timestamp;P1;durP1;ratioP1;P2;durP2;ratioP2
71916;SDS011;59793;46.506;6.674;2023-12-07T00:01:25;5.82;;;2.85;;
71916;SDS011;59793;46.506;6.674;2023-12-07T00:03:51;5.00;;;2.83;;
71916;SDS011;59793;46.506;6.674;2023-12-07T00:06:17;5.80;;;3.03;;
71916;SDS011;59793;46.506;6.674;2023-12-07T00:08:44;6.20;;;3.25;;
71916;SDS011;59793;46.506;6.674;2023-12-07T00:11:10;4.90;;;2.80;;
71916;SDS011;59793;46.506;6.674;2023-12-07T00:13:36;4.43;;;2.95;;
71916;SDS011;59793;46.506;6.674;2023-12-07T00:16:02;5.00;;;3.03;;
71916;SDS011;59793;46.506;6.674;2023-12-07T00:18:27;4.07;;;2.67;;
71916;SDS011;59793;46.506;6.674;2023-12-07T00:20:56;5.25;;;3.17;;
71916;SDS011;59793;46.506;6.674;2023-12-07T00:23:21;5.82;;;2.83;;
71916;SDS011;59793;46.506;6.674;2023-12-07T00:25:49;6.03;;;3.30;;
71916;SDS011;59793;46.506;6.674;2023-12-07T00:28:17;7.57;;;3.20;;
71916;SDS011;59793;46.506;6.674;2023-12-07T00:30:43;6.82;;;4.30;;
71916;SDS011;59793;46.506;6.674;2023-12-07T00:33:11;5.32;;;3.55;;
71916;SDS011;59793;46.506;6.674;2023-12-07T00:38:04;5.37;;;3.13;;
71916;SDS011;59793;46.506;6.674;2023-12-07T00:40:31;7.05;;;2.80;;
71916;SDS011;59793;46.506;6.674;2023-12-07T00:43:01;6.75;;;2.85;;
71916;SDS011;59793;46.506;6.674;2023-12-07T00:45:27;5.03;;;3.43;;
71916;SDS011;59793;46.506;6.674;2023-12-07T00:47:52;4.32;;;3.20;;
71916;SDS011;59793;46.506;6.674;2023-12-07T00:50:18;6.40;;;3.15;;
71916;SDS011;59793;46.506;6.674;2023-12-07T00:52:43;5.22;;;3.42;;
71916;SDS011;59793;46.506;6.674;2023-12-07T00:55:09;5.20;;;3.17;;
71916;SDS011;59793;46.506;6.674;2023-12-07T00:57:36;4.93;;;2.95;;
71916;SDS011;59793;46.506;6.674;2023-12-07T01:00:01;6.30;;;3.90;;
71916;SDS011;59793;46.506;6.674;2023-12-07T01:02:27;5.00;;;3.15;;
71916;SDS011;59793;46.506;6.674;2023-12-07T01:04:52;5.07;;;3.42;;
71916;SDS011;59793;46.506;6.674;2023-12-07T01:07:19;5.07;;;3.70;;
71916;SDS011;59793;46.506;6.674;2023-12-07T01:09:45;5.10;;;3.25;;
71916;SDS011;59793;46.506;6.674;2023-12-07T01:12:12;4.45;;;3.33;;
71916;SDS011;59793;46.506;6.674;2023-12-07T01:14:38;4.72;;;2.92;;
71916;SDS011;59793;46.506;6.674;2023-12-07T01:17:04;5.00;;;3.53;;
71916;SDS011;59793;46.506;6.674;2023-12-07T01:19:29;6.20;;;4.03;;
71916;SDS011;59793;46.506;6.674;2023-12-07T01:21:54;7.35;;;3.78;;
71916;SDS011;59793;46.506;6.674;2023-12-07T01:24:20;5.57;;;3.47;;
71916;SDS011;59793;46.506;6.674;2023-12-07T01:26:45;4.15;;;2.92;;
71916;SDS011;59793;46.506;6.674;2023-12-07T01:29:10;4.93;;;3.72;;
71916;SDS011;59793;46.506;6.674;2023-12-07T01:31:36;5.93;;;4.20;;
71916;SDS011;59793;46.506;6.674;2023-12-07T01:34:02;5.28;;;3.25;;
71916;SDS011;59793;46.506;6.674;2023-12-07T01:36:28;4.25;;;2.65;;
71916;SDS011;59793;46.506;6.674;2023-12-07T01:38:53;5.53;;;3.45;;
71916;SDS011;59793;46.506;6.674;2023-12-07T01:41:18;4.30;;;3.13;;
71916;SDS011;59793;46.506;6.674;2023-12-07T01:43:47;5.50;;;3.35;;
71916;SDS011;59793;46.506;6.674;2023-12-07T01:46:13;5.22;;;3.45;;
71916;SDS011;59793;46.506;6.674;2023-12-07T01:48:39;5.25;;;3.55;;
71916;SDS011;59793;46.506;6.674;2023-12-07T01:51:05;5.68;;;3.25;;
71916;SDS011;59793;46.506;6.674;2023-12-07T01:53:31;4.93;;;3.35;;
71916;SDS011;59793;46.506;6.674;2023-12-07T01:55:58;3.92;;;2.88;;
71916;SDS011;59793;46.506;6.674;2023-12-07T01:58:24;5.53;;;3.28;;
71916;SDS011;59793;46.506;6.674;2023-12-07T02:00:50;4.18;;;3.17;;
71916;SDS011;59793;46.506;6.674;2023-12-07T02:03:16;5.13;;;2.97;;
71916;SDS011;59793;46.506;6.674;2023-12-07T02:05:43;6.00;;;3.15;;
71916;SDS011;59793;46.506;6.674;2023-12-07T02:08:11;5.20;;;3.72;;
71916;SDS011;59793;46.506;6.674;2023-12-07T02:10:37;5.80;;;3.40;;
71916;SDS011;59793;46.506;6.674;2023-12-07T02:13:02;5.95;;;3.10;;
71916;SDS011;59793;46.506;6.674;2023-12-07T02:15:28;4.35;;;2.92;;
71916;SDS011;59793;46.506;6.674;2023-12-07T02:20:28;4.00;;;3.13;;
71916;SDS011;59793;46.506;6.674;2023-12-07T02:23:16;5.28;;;3.22;;
71916;SDS011;59793;46.506;6.674;2023-12-07T02:25:52;5.28;;;3.00;;
71916;SDS011;59793;46.506;6.674;2023-12-07T02:28:19;5.10;;;3.35;;
71916;SDS011;59793;46.506;6.674;2023-12-07T02:30:45;4.90;;;3.33;;
71916;SDS011;59793;46.506;6.674;2023-12-07T02:33:11;5.88;;;2.92;;
71916;SDS011;59793;46.506;6.674;2023-12-07T02:35:37;4.43;;;3.28;;
71916;SDS011;59793;46.506;6.674;2023-12-07T02:38:05;6.40;;;2.80;;
71916;SDS011;59793;46.506;6.674;2023-12-07T02:40:32;6.60;;;4.13;;
71916;SDS011;59793;46.506;6.674;2023-12-07T02:43:03;3.78;;;2.70;;
71916;SDS011;59793;46.506;6.674;2023-12-07T02:45:29;6.43;;;3.13;;
71916;SDS011;59793;46.506;6.674;2023-12-07T02:47:55;3.77;;;2.67;;
71916;SDS011;59793;46.506;6.674;2023-12-07T02:50:23;4.72;;;3.00;;
71916;SDS011;59793;46.506;6.674;2023-12-07T02:52:48;4.50;;;3.05;;
71916;SDS011;59793;46.506;6.674;2023-12-07T02:55:13;6.82;;;3.10;;
71916;SDS011;59793;46.506;6.674;2023-12-07T02:57:39;5.22;;;2.97;;
71916;SDS011;59793;46.506;6.674;2023-12-07T03:00:05;3.85;;;2.95;;
71916;SDS011;59793;46.506;6.674;2023-12-07T03:02:34;4.70;;;3.10;;
71916;SDS011;59793;46.506;6.674;2023-12-07T03:05:01;4.63;;;3.08;;
71916;SDS011;59793;46.506;6.674;2023-12-07T03:07:27;4.78;;;2.75;;
71916;SDS011;59793;46.506;6.674;2023-12-07T03:09:52;5.75;;;3.05;;
71916;SDS011;59793;46.506;6.674;2023-12-07T03:12:17;5.15;;;3.20;;
71916;SDS011;59793;46.506;6.674;2023-12-07T03:14:43;4.57;;;2.40;;
71916;SDS011;59793;46.506;6.674;2023-12-07T03:17:09;3.97;;;2.72;;
71916;SDS011;59793;46.506;6.674;2023-12-07T03:19:37;3.78;;;2.42;;
71916;SDS011;59793;46.506;6.674;2023-12-07T03:22:03;3.92;;;2.70;;
71916;SDS011;59793;46.506;6.674;2023-12-07T03:24:29;5.50;;;2.92;;
71916;SDS011;59793;46.506;6.674;2023-12-07T03:26:56;2.65;;;2.00;;
71916;SDS011;59793;46.506;6.674;2023-12-07T03:31:49;2.83;;;2.20;;
71916;SDS011;59793;46.506;6.674;2023-12-07T03:34:15;3.25;;;2.70;;
71916;SDS011;59793;46.506;6.674;2023-12-07T03:36:41;3.55;;;2.70;;
71916;SDS011;59793;46.506;6.674;2023-12-07T03:39:07;5.15;;;2.85;;
71916;SDS011;59793;46.506;6.674;2023-12-07T03:41:33;3.92;;;2.97;;
71916;SDS011;59793;46.506;6.674;2023-12-07T03:43:58;3.63;;;2.58;;
71916;SDS011;59793;46.506;6.674;2023-12-07T03:46:24;5.15;;;2.50;;
71916;SDS011;59793;46.506;6.674;2023-12-07T03:48:50;6.93;;;2.88;;
71916;SDS011;59793;46.506;6.674;2023-12-07T03:51:16;3.17;;;2.58;;
71916;SDS011;59793;46.506;6.674;2023-12-07T03:53:42;3.38;;;2.50;;
71916;SDS011;59793;46.506;6.674;2023-12-07T03:56:09;4.03;;;2.42;;
71916;SDS011;59793;46.506;6.674;2023-12-07T03:58:34;3.63;;;2.45;;
71916;SDS011;59793;46.506;6.674;2023-12-07T04:01:02;5.53;;;3.10;;
71916;SDS011;59793;46.506;6.674;2023-12-07T04:03:27;3.97;;;2.20;;
71916;SDS011;59793;46.506;6.674;2023-12-07T04:05:57;3.83;;;2.20;;
71916;SDS011;59793;46.506;6.674;2023-12-07T04:08:22;6.05;;;2.10;;
71916;SDS011;59793;46.506;6.674;2023-12-07T04:10:47;3.90;;;2.38;;
71916;SDS011;59793;46.506;6.674;2023-12-07T04:13:13;2.65;;;1.83;;
71916;SDS011;59793;46.506;6.674;2023-12-07T04:15:38;3.85;;;2.13;;
71916;SDS011;59793;46.506;6.674;2023-12-07T04:18:04;1.80;;;1.33;;
71916;SDS011;59793;46.506;6.674;2023-12-07T04:20:30;4.63;;;2.40;;
71916;SDS011;59793;46.506;6.674;2023-12-07T04:22:55;2.55;;;1.85;;
71916;SDS011;59793;46.506;6.674;2023-12-07T04:25:21;3.28;;;1.77;;
71916;SDS011;59793;46.506;6.674;2023-12-07T04:30:14;2.60;;;1.85;;
71916;SDS011;59793;46.506;6.674;2023-12-07T04:32:39;3.03;;;2.17;;
71916;SDS011;59793;46.506;6.674;2023-12-07T04:35:05;5.03;;;2.10;;
71916;SDS011;59793;46.506;6.674;2023-12-07T04:37:34;4.60;;;2.00;;
71916;SDS011;59793;46.506;6.674;2023-12-07T04:40:03;2.80;;;1.88;;
71916;SDS011;59793;46.506;6.674;2023-12-07T04:44:55;4.57;;;2.03;;
71916;SDS011;59793;46.506;6.674;2023-12-07T04:47:21;3.78;;;2.25;;
71916;SDS011;59793;46.506;6.674;2023-12-07T04:50:08;3.40;;;1.73;;
71916;SDS011;59793;46.506;6.674;2023-12-07T04:52:35;3.42;;;2.10;;
71916;SDS011;59793;46.506;6.674;2023-12-07T04:55:02;2.37;;;1.47;;
71916;SDS011;59793;46.506;6.674;2023-12-07T04:57:34;4.00;;;2.10;;
71916;SDS011;59793;46.506;6.674;2023-12-07T05:00:00;2.30;;;1.77;;
71916;SDS011;59793;46.506;6.674;2023-12-07T05:02:31;4.70;;;1.95;;
71916;SDS011;59793;46.506;6.674;2023-12-07T05:04:56;7.05;;;1.98;;
71916;SDS011;59793;46.506;6.674;2023-12-07T05:07:22;3.28;;;1.80;;
71916;SDS011;59793;46.506;6.674;2023-12-07T05:09:48;3.90;;;1.95;;
71916;SDS011;59793;46.506;6.674;2023-12-07T05:12:17;2.83;;;1.95;;
71916;SDS011;59793;46.506;6.674;2023-12-07T05:14:44;3.15;;;1.60;;
71916;SDS011;59793;46.506;6.674;2023-12-07T05:17:10;3.00;;;1.90;;
71916;SDS011;59793;46.506;6.674;2023-12-07T05:19:36;3.60;;;1.98;;
71916;SDS011;59793;46.506;6.674;2023-12-07T05:22:02;3.92;;;1.80;;
71916;SDS011;59793;46.506;6.674;2023-12-07T05:24:27;3.42;;;1.83;;
71916;SDS011;59793;46.506;6.674;2023-12-07T05:26:53;6.82;;;2.60;;
71916;SDS011;59793;46.506;6.674;2023-12-07T05:29:18;3.90;;;2.08;;
71916;SDS011;59793;46.506;6.674;2023-12-07T05:31:51;4.47;;;2.33;;
71916;SDS011;59793;46.506;6.674;2023-12-07T05:34:18;3.67;;;2.17;;
71916;SDS011;59793;46.506;6.674;2023-12-07T05:36:45;2.47;;;1.88;;
71916;SDS011;59793;46.506;6.674;2023-12-07T05:39:17;3.45;;;2.30;;
71916;SDS011;59793;46.506;6.674;2023-12-07T05:41:50;3.78;;;2.00;;
71916;SDS011;59793;46.506;6.674;2023-12-07T05:44:15;3.97;;;2.58;;
71916;SDS011;59793;46.506;6.674;2023-12-07T05:46:46;3.25;;;2.08;;
71916;SDS011;59793;46.506;6.674;2023-12-07T05:49:12;4.70;;;2.40;;
71916;SDS011;59793;46.506;6.674;2023-12-07T05:51:38;6.60;;;2.60;;
71916;SDS011;59793;46.506;6.674;2023-12-07T05:54:07;6.68;;;3.42;;
71916;SDS011;59793;46.506;6.674;2023-12-07T05:56:33;4.47;;;2.67;;
71916;SDS011;59793;46.506;6.674;2023-12-07T05:59:00;7.30;;;2.75;;
71916;SDS011;59793;46.506;6.674;2023-12-07T06:01:26;4.60;;;2.53;;
71916;SDS011;59793;46.506;6.674;2023-12-07T06:03:53;8.13;;;3.35;;
71916;SDS011;59793;46.506;6.674;2023-12-07T06:06:20;5.05;;;2.85;;
71916;SDS011;59793;46.506;6.674;2023-12-07T06:08:46;6.45;;;3.05;;
71916;SDS011;59793;46.506;6.674;2023-12-07T06:13:43;4.70;;;2.70;;
71916;SDS011;59793;46.506;6.674;2023-12-07T06:16:12;4.85;;;2.33;;
71916;SDS011;59793;46.506;6.674;2023-12-07T06:19:01;3.50;;;2.03;;
71916;SDS011;59793;46.506;6.674;2023-12-07T06:21:26;4.13;;;1.88;;
71916;SDS011;59793;46.506;6.674;2023-12-07T06:23:58;8.35;;;1.90;;
71916;SDS011;59793;46.506;6.674;2023-12-07T06:26:40;3.40;;;2.03;;
71916;SDS011;59793;46.506;6.674;2023-12-07T06:29:15;4.13;;;2.20;;
71916;SDS011;59793;46.506;6.674;2023-12-07T06:31:44;3.58;;;2.33;;
71916;SDS011;59793;46.506;6.674;2023-12-07T06:34:31;4.95;;;2.10;;
71916;SDS011;59793;46.506;6.674;2023-12-07T06:37:17;3.88;;;2.10;;
71916;SDS011;59793;46.506;6.674;2023-12-07T06:39:42;4.10;;;2.30;;
71916;SDS011;59793;46.506;6.674;2023-12-07T06:42:13;7.55;;;2.75;;
71916;SDS011;59793;46.506;6.674;2023-12-07T06:44:40;4.28;;;1.70;;
71916;SDS011;59793;46.506;6.674;2023-12-07T06:47:30;2.53;;;1.63;;
71916;SDS011;59793;46.506;6.674;2023-12-07T07:01:13;4.80;;;2.75;;
71916;SDS011;59793;46.506;6.674;2023-12-07T07:04:07;6.40;;;3.17;;
71916;SDS011;59793;46.506;6.674;2023-12-07T07:27:07;5.55;;;2.95;;
71916;SDS011;59793;46.506;6.674;2023-12-07T07:32:38;6.47;;;4.15;;
71916;SDS011;59793;46.506;6.674;2023-12-07T07:45:26;3.83;;;2.58;;
71916;SDS011;59793;46.506;6.674;2023-12-07T07:47:53;5.40;;;2.90;;
71916;SDS011;59793;46.506;6.674;2023-12-07T07:50:33;4.63;;;3.22;;
71916;SDS011;59793;46.506;6.674;2023-12-07T07:53:02;6.70;;;3.83;;
71916;SDS011;59793;46.506;6.674;2023-12-07T07:55:29;6.57;;;3.42;;
71916;SDS011;59793;46.506;6.674;2023-12-07T07:57:56;10.05;;;3.42;;
71916;SDS011;59793;46.506;6.674;2023-12-07T08:16:17;9.15;;;4.63;;
71916;SDS011;59793;46.506;6.674;2023-12-07T08:18:44;7.05;;;4.38;;
71916;SDS011;59793;46.506;6.674;2023-12-07T08:21:50;6.30;;;4.20;;
71916;SDS011;59793;46.506;6.674;2023-12-07T08:24:24;7.90;;;4.75;;
71916;SDS011;59793;46.506;6.674;2023-12-07T08:27:06;6.55;;;3.97;;
71916;SDS011;59793;46.506;6.674;2023-12-07T08:29:35;6.45;;;4.10;;
71916;SDS011;59793;46.506;6.674;2023-12-07T08:39:57;7.70;;;1.95;;
71916;SDS011;59793;46.506;6.674;2023-12-07T08:42:25;3.35;;;1.73;;
71916;SDS011;59793;46.506;6.674;2023-12-07T08:47:37;2.63;;;1.63;;
71916;SDS011;59793;46.506;6.674;2023-12-07T09:00:26;2.58;;;1.33;;
71916;SDS011;59793;46.506;6.674;2023-12-07T09:10:41;2.35;;;1.30;;
71916;SDS011;59793;46.506;6.674;2023-12-07T09:13:08;4.03;;;2.00;;
71916;SDS011;59793;46.506;6.674;2023-12-07T09:15:33;4.65;;;1.63;;
71916;SDS011;59793;46.506;6.674;2023-12-07T09:18:02;3.85;;;1.92;;
71916;SDS011;59793;46.506;6.674;2023-12-07T09:20:30;6.25;;;2.58;;
71916;SDS011;59793;46.506;6.674;2023-12-07T09:22:55;5.05;;;2.78;;
71916;SDS011;59793;46.506;6.674;2023-12-07T09:25:22;7.05;;;2.50;;
71916;SDS011;59793;46.506;6.674;2023-12-07T09:27:48;6.95;;;2.72;;
71916;SDS011;59793;46.506;6.674;2023-12-07T09:30:13;4.05;;;2.72;;
71916;SDS011;59793;46.506;6.674;2023-12-07T09:32:39;6.43;;;3.10;;
71916;SDS011;59793;46.506;6.674;2023-12-07T09:40:23;5.03;;;3.38;;
71916;SDS011;59793;46.506;6.674;2023-12-07T09:43:09;7.00;;;4.25;;
71916;SDS011;59793;46.506;6.674;2023-12-07T09:45:38;7.45;;;3.35;;
71916;SDS011;59793;46.506;6.674;2023-12-07T09:48:07;7.47;;;3.25;;
71916;SDS011;59793;46.506;6.674;2023-12-07T09:51:15;5.57;;;3.53;;
71916;SDS011;59793;46.506;6.674;2023-12-07T09:53:43;4.55;;;2.35;;
71916;SDS011;59793;46.506;6.674;2023-12-07T09:56:14;5.38;;;1.83;;
71916;SDS011;59793;46.506;6.674;2023-12-07T10:11:36;2.53;;;1.27;;
71916;SDS011;59793;46.506;6.674;2023-12-07T10:14:30;3.80;;;1.52;;
71916;SDS011;59793;46.506;6.674;2023-12-07T10:19:39;4.78;;;1.70;;
71916;SDS011;59793;46.506;6.674;2023-12-07T10:22:15;2.20;;;1.40;;
71916;SDS011;59793;46.506;6.674;2023-12-07T10:24:42;4.28;;;1.45;;
71916;SDS011;59793;46.506;6.674;2023-12-07T10:29:37;2.72;;;1.30;;
71916;SDS011;59793;46.506;6.674;2023-12-07T10:32:05;3.20;;;1.55;;
71916;SDS011;59793;46.506;6.674;2023-12-07T10:34:32;3.38;;;0.95;;
71916;SDS011;59793;46.506;6.674;2023-12-07T10:37:07;2.33;;;1.00;;
71916;SDS011;59793;46.506;6.674;2023-12-07T10:39:35;4.03;;;1.52;;
71916;SDS011;59793;46.506;6.674;2023-12-07T10:42:04;4.53;;;1.73;;
71916;SDS011;59793;46.506;6.674;2023-12-07T10:44:34;3.38;;;1.40;;
71916;SDS011;59793;46.506;6.674;2023-12-07T10:47:05;6.63;;;1.75;;
71916;SDS011;59793;46.506;6.674;2023-12-07T10:49:35;3.08;;;1.20;;
71916;SDS011;59793;46.506;6.674;2023-12-07T10:52:26;4.10;;;1.65;;
71916;SDS011;59793;46.506;6.674;2023-12-07T10:57:54;5.15;;;2.38;;
71916;SDS011;59793;46.506;6.674;2023-12-07T11:00:25;4.22;;;1.63;;
71916;SDS011;59793;46.506;6.674;2023-12-07T11:02:59;4.53;;;2.28;;
71916;SDS011;59793;46.506;6.674;2023-12-07T11:07:55;1.98;;;1.25;;
71916;SDS011;59793;46.506;6.674;2023-12-07T11:10:34;3.35;;;1.40;;
71916;SDS011;59793;46.506;6.674;2023-12-07T11:13:24;3.03;;;1.50;;
71916;SDS011;59793;46.506;6.674;2023-12-07T11:21:39;3.03;;;1.70;;
71916;SDS011;59793;46.506;6.674;2023-12-07T11:24:15;10.98;;;2.20;;
71916;SDS011;59793;46.506;6.674;2023-12-07T11:26:42;3.65;;;2.17;;
71916;SDS011;59793;46.506;6.674;2023-12-07T11:29:23;8.70;;;1.92;;
71916;SDS011;59793;46.506;6.674;2023-12-07T11:32:05;2.22;;;1.40;;
71916;SDS011;59793;46.506;6.674;2023-12-07T11:34:38;3.47;;;1.48;;
71916;SDS011;59793;46.506;6.674;2023-12-07T11:37:08;2.95;;;1.27;;
71916;SDS011;59793;46.506;6.674;2023-12-07T11:39:42;2.45;;;1.35;;
71916;SDS011;59793;46.506;6.674;2023-12-07T11:42:27;2.45;;;1.45;;
71916;SDS011;59793;46.506;6.674;2023-12-07T11:47:31;3.50;;;2.03;;
71916;SDS011;59793;46.506;6.674;2023-12-07T11:50:20;4.35;;;1.35;;
71916;SDS011;59793;46.506;6.674;2023-12-07T11:53:02;4.90;;;2.08;;
71916;SDS011;59793;46.506;6.674;2023-12-07T11:55:31;2.97;;;1.55;;
71916;SDS011;59793;46.506;6.674;2023-12-07T11:57:58;2.33;;;1.48;;
71916;SDS011;59793;46.506;6.674;2023-12-07T12:00:24;4.83;;;2.00;;
71916;SDS011;59793;46.506;6.674;2023-12-07T12:02:51;2.97;;;1.70;;
71916;SDS011;59793;46.506;6.674;2023-12-07T12:05:36;5.43;;;1.83;;
71916;SDS011;59793;46.506;6.674;2023-12-07T12:08:08;6.65;;;2.05;;
71916;SDS011;59793;46.506;6.674;2023-12-07T12:10:51;2.08;;;1.52;;
71916;SDS011;59793;46.506;6.674;2023-12-07T12:13:21;4.43;;;2.78;;
71916;SDS011;59793;46.506;6.674;2023-12-07T12:15:53;4.28;;;1.88;;
71916;SDS011;59793;46.506;6.674;2023-12-07T12:18:41;7.03;;;2.25;;
71916;SDS011;59793;46.506;6.674;2023-12-07T12:21:22;5.40;;;2.20;;
71916;SDS011;59793;46.506;6.674;2023-12-07T12:23:50;3.47;;;2.10;;
71916;SDS011;59793;46.506;6.674;2023-12-07T12:26:16;3.67;;;2.17;;
71916;SDS011;59793;46.506;6.674;2023-12-07T12:28:43;4.57;;;1.83;;
71916;SDS011;59793;46.506;6.674;2023-12-07T12:31:10;3.55;;;2.15;;
71916;SDS011;59793;46.506;6.674;2023-12-07T12:33:40;8.35;;;3.30;;
71916;SDS011;59793;46.506;6.674;2023-12-07T12:36:07;3.88;;;2.03;;
71916;SDS011;59793;46.506;6.674;2023-12-07T12:38:38;7.00;;;2.78;;
71916;SDS011;59793;46.506;6.674;2023-12-07T12:41:05;5.30;;;2.80;;
71916;SDS011;59793;46.506;6.674;2023-12-07T12:43:34;3.60;;;2.45;;
71916;SDS011;59793;46.506;6.674;2023-12-07T12:46:02;9.30;;;3.50;;
71916;SDS011;59793;46.506;6.674;2023-12-07T12:48:29;7.03;;;3.38;;
71916;SDS011;59793;46.506;6.674;2023-12-07T12:50:55;6.05;;;3.72;;
71916;SDS011;59793;46.506;6.674;2023-12-07T12:53:21;5.78;;;4.07;;
71916;SDS011;59793;46.506;6.674;2023-12-07T12:55:48;3.58;;;1.90;;
71916;SDS011;59793;46.506;6.674;2023-12-07T12:58:14;2.03;;;1.50;;
71916;SDS011;59793;46.506;6.674;2023-12-07T13:00:45;2.60;;;1.73;;
71916;SDS011;59793;46.506;6.674;2023-12-07T13:03:14;5.25;;;1.50;;
71916;SDS011;59793;46.506;6.674;2023-12-07T13:05:44;4.25;;;1.17;;
71916;SDS011;59793;46.506;6.674;2023-12-07T13:08:10;6.82;;;1.17;;
71916;SDS011;59793;46.506;6.674;2023-12-07T13:10:38;3.80;;;1.40;;
71916;SDS011;59793;46.506;6.674;2023-12-07T13:13:07;3.63;;;1.75;;
71916;SDS011;59793;46.506;6.674;2023-12-07T13:15:35;5.68;;;1.35;;
71916;SDS011;59793;46.506;6.674;2023-12-07T13:18:04;1.90;;;1.00;;
71916;SDS011;59793;46.506;6.674;2023-12-07T13:20:39;2.58;;;1.30;;
71916;SDS011;59793;46.506;6.674;2023-12-07T13:23:04;1.73;;;1.10;;
71916;SDS011;59793;46.506;6.674;2023-12-07T13:25:31;5.25;;;1.48;;
71916;SDS011;59793;46.506;6.674;2023-12-07T13:27:57;3.33;;;1.83;;
71916;SDS011;59793;46.506;6.674;2023-12-07T13:30:44;25.70;;;3.63;;
71916;SDS011;59793;46.506;6.674;2023-12-07T13:33:10;8.45;;;2.28;;
71916;SDS011;59793;46.506;6.674;2023-12-07T13:35:37;18.17;;;3.45;;
71916;SDS011;59793;46.506;6.674;2023-12-07T13:38:02;2.63;;;1.73;;
71916;SDS011;59793;46.506;6.674;2023-12-07T13:43:12;17.88;;;3.15;;
71916;SDS011;59793;46.506;6.674;2023-12-07T13:45:41;3.30;;;1.85;;
71916;SDS011;59793;46.506;6.674;2023-12-07T13:48:08;4.38;;;2.00;;
71916;SDS011;59793;46.506;6.674;2023-12-07T13:50:37;11.95;;;3.47;;
71916;SDS011;59793;46.506;6.674;2023-12-07T13:53:03;3.50;;;1.87;;
71916;SDS011;59793;46.506;6.674;2023-12-07T13:55:28;78.33;;;7.63;;
71916;SDS011;59793;46.506;6.674;2023-12-07T14:00:22;2.42;;;1.50;;
71916;SDS011;59793;46.506;6.674;2023-12-07T14:02:48;9.73;;;2.33;;
71916;SDS011;59793;46.506;6.674;2023-12-07T14:05:15;6.95;;;1.70;;
71916;SDS011;59793;46.506;6.674;2023-12-07T14:07:41;42.75;;;4.72;;
71916;SDS011;59793;46.506;6.674;2023-12-07T14:10:13;5.13;;;1.80;;
71916;SDS011;59793;46.506;6.674;2023-12-07T14:12:40;2.80;;;1.67;;
71916;SDS011;59793;46.506;6.674;2023-12-07T14:15:06;3.93;;;1.70;;
71916;SDS011;59793;46.506;6.674;2023-12-07T14:17:35;2.63;;;1.63;;
71916;SDS011;59793;46.506;6.674;2023-12-07T14:20:30;2.75;;;1.60;;
71916;SDS011;59793;46.506;6.674;2023-12-07T14:23:09;2.67;;;1.60;;
71916;SDS011;59793;46.506;6.674;2023-12-07T14:28:06;3.67;;;2.50;;
71916;SDS011;59793;46.506;6.674;2023-12-07T14:30:32;5.47;;;1.70;;
71916;SDS011;59793;46.506;6.674;2023-12-07T14:32:57;3.13;;;1.97;;
71916;SDS011;59793;46.506;6.674;2023-12-07T14:35:23;5.53;;;2.13;;
71916;SDS011;59793;46.506;6.674;2023-12-07T14:37:50;3.33;;;1.88;;
71916;SDS011;59793;46.506;6.674;2023-12-07T14:40:17;3.00;;;1.70;;
71916;SDS011;59793;46.506;6.674;2023-12-07T14:42:43;4.05;;;2.13;;
71916;SDS011;59793;46.506;6.674;2023-12-07T14:45:10;3.40;;;1.85;;
71916;SDS011;59793;46.506;6.674;2023-12-07T14:47:36;3.70;;;1.90;;
71916;SDS011;59793;46.506;6.674;2023-12-07T14:50:02;4.15;;;1.65;;
71916;SDS011;59793;46.506;6.674;2023-12-07T14:52:31;4.50;;;1.98;;
71916;SDS011;59793;46.506;6.674;2023-12-07T14:54:57;5.13;;;1.83;;
71916;SDS011;59793;46.506;6.674;2023-12-07T14:57:22;2.55;;;1.60;;
71916;SDS011;59793;46.506;6.674;2023-12-07T14:59:47;3.00;;;1.70;;
71916;SDS011;59793;46.506;6.674;2023-12-07T15:02:15;3.45;;;1.60;;
71916;SDS011;59793;46.506;6.674;2023-12-07T15:04:41;2.67;;;1.48;;
71916;SDS011;59793;46.506;6.674;2023-12-07T15:09:41;2.88;;;1.48;;
71916;SDS011;59793;46.506;6.674;2023-12-07T15:12:09;2.83;;;2.00;;
71916;SDS011;59793;46.506;6.674;2023-12-07T15:14:44;3.50;;;2.05;;
71916;SDS011;59793;46.506;6.674;2023-12-07T15:17:23;4.28;;;2.00;;
71916;SDS011;59793;46.506;6.674;2023-12-07T15:20:09;5.65;;;2.03;;
71916;SDS011;59793;46.506;6.674;2023-12-07T15:22:36;8.15;;;2.55;;
71916;SDS011;59793;46.506;6.674;2023-12-07T15:25:05;3.60;;;1.83;;
71916;SDS011;59793;46.506;6.674;2023-12-07T15:27:30;3.33;;;1.70;;
71916;SDS011;59793;46.506;6.674;2023-12-07T15:30:12;4.93;;;2.00;;
71916;SDS011;59793;46.506;6.674;2023-12-07T15:32:38;3.75;;;1.85;;
71916;SDS011;59793;46.506;6.674;2023-12-07T15:35:04;3.40;;;1.80;;
71916;SDS011;59793;46.506;6.674;2023-12-07T15:37:47;2.63;;;1.40;;
71916;SDS011;59793;46.506;6.674;2023-12-07T15:40:12;8.90;;;2.40;;
71916;SDS011;59793;46.506;6.674;2023-12-07T15:42:39;6.85;;;2.80;;
71916;SDS011;59793;46.506;6.674;2023-12-07T15:45:06;6.82;;;2.67;;
71916;SDS011;59793;46.506;6.674;2023-12-07T15:47:36;3.58;;;2.03;;
71916;SDS011;59793;46.506;6.674;2023-12-07T15:55:29;10.95;;;2.67;;
71916;SDS011;59793;46.506;6.674;2023-12-07T15:57:55;4.32;;;2.40;;
71916;SDS011;59793;46.506;6.674;2023-12-07T16:00:21;5.43;;;2.70;;
71916;SDS011;59793;46.506;6.674;2023-12-07T16:02:51;7.07;;;2.88;;
71916;SDS011;59793;46.506;6.674;2023-12-07T16:05:41;3.17;;;2.10;;
71916;SDS011;59793;46.506;6.674;2023-12-07T16:08:16;4.13;;;2.47;;
71916;SDS011;59793;46.506;6.674;2023-12-07T16:10:41;5.60;;;3.00;;
71916;SDS011;59793;46.506;6.674;2023-12-07T16:13:10;4.95;;;2.90;;
71916;SDS011;59793;46.506;6.674;2023-12-07T16:20:45;6.15;;;4.45;;
71916;SDS011;59793;46.506;6.674;2023-12-07T16:23:12;7.03;;;4.75;;
71916;SDS011;59793;46.506;6.674;2023-12-07T16:25:38;14.15;;;5.57;;
71916;SDS011;59793;46.506;6.674;2023-12-07T16:28:03;9.98;;;5.50;;
71916;SDS011;59793;46.506;6.674;2023-12-07T16:30:29;9.93;;;5.07;;
71916;SDS011;59793;46.506;6.674;2023-12-07T16:32:58;8.50;;;4.68;;
71916;SDS011;59793;46.506;6.674;2023-12-07T16:35:24;10.50;;;5.50;;
71916;SDS011;59793;46.506;6.674;2023-12-07T16:37:50;15.27;;;6.13;;
71916;SDS011;59793;46.506;6.674;2023-12-07T16:53:48;12.15;;;5.60;;
71916;SDS011;59793;46.506;6.674;2023-12-07T16:56:13;14.02;;;6.28;;
71916;SDS011;59793;46.506;6.674;2023-12-07T16:59:11;7.30;;;4.80;;
71916;SDS011;59793;46.506;6.674;2023-12-07T17:01:37;11.38;;;5.80;;
71916;SDS011;59793;46.506;6.674;2023-12-07T17:06:29;12.75;;;4.65;;
71916;SDS011;59793;46.506;6.674;2023-12-07T17:09:14;7.07;;;5.22;;
71916;SDS011;59793;46.506;6.674;2023-12-07T17:11:40;10.85;;;5.00;;
71916;SDS011;59793;46.506;6.674;2023-12-07T17:14:07;6.03;;;4.15;;
71916;SDS011;59793;46.506;6.674;2023-12-07T17:16:33;6.83;;;3.83;;
71916;SDS011;59793;46.506;6.674;2023-12-07T17:18:58;8.38;;;5.20;;
71916;SDS011;59793;46.506;6.674;2023-12-07T17:21:28;7.00;;;3.83;;
71916;SDS011;59793;46.506;6.674;2023-12-07T17:23:54;6.10;;;4.45;;
71916;SDS011;59793;46.506;6.674;2023-12-07T17:26:23;5.88;;;4.45;;
71916;SDS011;59793;46.506;6.674;2023-12-07T17:28:48;8.05;;;4.60;;
71916;SDS011;59793;46.506;6.674;2023-12-07T17:33:41;8.70;;;4.80;;
71916;SDS011;59793;46.506;6.674;2023-12-07T17:36:08;8.15;;;5.20;;
71916;SDS011;59793;46.506;6.674;2023-12-07T17:38:35;7.57;;;3.73;;
71916;SDS011;59793;46.506;6.674;2023-12-07T17:43:36;8.68;;;4.50;;
71916;SDS011;59793;46.506;6.674;2023-12-07T17:46:22;9.70;;;5.95;;
71916;SDS011;59793;46.506;6.674;2023-12-07T17:48:49;8.90;;;5.65;;
71916;SDS011;59793;46.506;6.674;2023-12-07T17:51:15;9.38;;;5.03;;
71916;SDS011;59793;46.506;6.674;2023-12-07T17:53:41;12.05;;;6.22;;
71916;SDS011;59793;46.506;6.674;2023-12-07T17:56:17;12.20;;;6.50;;
71916;SDS011;59793;46.506;6.674;2023-12-07T17:59:09;10.70;;;5.78;;
71916;SDS011;59793;46.506;6.674;2023-12-07T18:01:37;10.60;;;4.82;;
71916;SDS011;59793;46.506;6.674;2023-12-07T18:04:10;7.85;;;4.95;;